UAE337 RPLL-OMDB
Flight info
| Callsign | UAE337 |
|---|---|
| Flight time | N/A |
| Altitude | 34000 |
| Route | SIRCA2R SIRCA L628 ARESI/K0930F340 L628 PCA G474 ANINA/N0502F340 G474 VEMKO M633 UXARO/N0496F360 M633 TANEK L301 BUSBO/N0491F380 L301 RAGMA N571 VUSET A454 PASOV B540 KUPMA/N0471F240 B540 MIVEK P574 IMPED |
| Aircraft | B77W/H-SDE1E2E3FGHIJ2J3J4J5M1RWXY/LB1D1 |
Departure
| Time | N/A |
|---|---|
| Airport | Ninoy Aquino International Airport (RPLL) |
Arrival
| Time | 2026-05-04 00:32 |
|---|---|
| Airport | Dubai International Airport (OMDB) |
| Time | Latitude | Longitude | Altitude | Speed | Heading |
|---|---|---|---|---|---|
| 2026-05-04 00:25 | 25.43156 | 55.04814 | 3895 ft | 249 kts | 123° |
| 2026-05-04 00:26 | 25.42280 | 55.06426 | 3794 ft | 245 kts | 123° |
| 2026-05-04 00:26 | 25.41402 | 55.08022 | 3716 ft | 242 kts | 123° |
| 2026-05-04 00:26 | 25.40527 | 55.09606 | 3637 ft | 241 kts | 123° |
| 2026-05-04 00:26 | 25.39644 | 55.11183 | 3625 ft | 241 kts | 125° |
| 2026-05-04 00:27 | 25.38709 | 55.12725 | 3549 ft | 242 kts | 126° |
| 2026-05-04 00:27 | 25.37746 | 55.14274 | 3420 ft | 242 kts | 128° |
| 2026-05-04 00:27 | 25.36800 | 55.15712 | 3321 ft | 220 kts | 127° |
| 2026-05-04 00:27 | 25.35987 | 55.17073 | 3222 ft | 205 kts | 124° |
| 2026-05-04 00:28 | 25.35248 | 55.18386 | 3169 ft | 199 kts | 123° |
| 2026-05-04 00:28 | 25.34526 | 55.19690 | 3106 ft | 200 kts | 123° |
| 2026-05-04 00:28 | 25.33807 | 55.20993 | 3028 ft | 202 kts | 123° |
| 2026-05-04 00:28 | 25.33078 | 55.22317 | 2784 ft | 199 kts | 123° |
| 2026-05-04 00:29 | 25.32360 | 55.23618 | 2538 ft | 198 kts | 123° |
| 2026-05-04 00:29 | 25.31642 | 55.24919 | 2284 ft | 199 kts | 123° |
| 2026-05-04 00:29 | 25.30923 | 55.26226 | 2025 ft | 199 kts | 123° |
| 2026-05-04 00:29 | 25.30206 | 55.27526 | 1773 ft | 197 kts | 122° |
| 2026-05-04 00:30 | 25.29521 | 55.28815 | 1616 ft | 194 kts | 120° |
| 2026-05-04 00:30 | 25.28843 | 55.30115 | 1332 ft | 197 kts | 121° |
| 2026-05-04 00:30 | 25.28153 | 55.31387 | 972 ft | 184 kts | 122° |
| 2026-05-04 00:30 | 25.27503 | 55.32497 | 714 ft | 162 kts | 123° |
| 2026-05-04 00:31 | 25.26935 | 55.33473 | 463 ft | 140 kts | 122° |
| 2026-05-04 00:31 | 25.26426 | 55.34379 | 323 ft | 138 kts | 123° |
| 2026-05-04 00:31 | 25.25918 | 55.35299 | 230 ft | 142 kts | 121° |
| 2026-05-04 00:31 | 25.25400 | 55.36235 | 108 ft | 144 kts | 122° |
| 2026-05-04 00:32 | 25.24879 | 55.37168 | 35 ft | 137 kts | 121° |
| 2026-05-04 00:32 | 25.24462 | 55.37919 | 35 ft | 94 kts | 122° |
| 2026-05-04 00:32 | 25.24199 | 55.38399 | 36 ft | 50 kts | 120° |
| 2026-05-04 00:32 | 25.24085 | 55.38584 | 35 ft | 20 kts | 144° |
| 2026-05-04 00:33 | 25.23946 | 55.38556 | 29 ft | 23 kts | 224° |
| 2026-05-04 00:33 | 25.23955 | 55.38437 | 27 ft | 18 kts | 309° |
| 2026-05-04 00:33 | 25.24082 | 55.38224 | 28 ft | 38 kts | 301° |
| 2026-05-04 00:34 | 25.24122 | 55.38108 | 27 ft | 10 kts | 258° |
| 2026-05-04 00:34 | 25.24111 | 55.38067 | 27 ft | 11 kts | 254° |
| 2026-05-04 00:34 | 25.24118 | 55.37981 | 27 ft | 12 kts | 290° |
| 2026-05-04 00:34 | 25.24186 | 55.37855 | 27 ft | 30 kts | 302° |
| 2026-05-04 00:35 | 25.24295 | 55.37659 | 27 ft | 29 kts | 302° |
| 2026-05-04 00:35 | 25.24375 | 55.37496 | 26 ft | 17 kts | 272° |
| 2026-05-04 00:35 | 25.24367 | 55.37464 | 26 ft | 1 kts | 230° |
| 2026-05-04 00:35 | 25.24340 | 55.37457 | 30 ft | 8 kts | 194° |
| 2026-05-04 00:36 | 25.24303 | 55.37439 | 14 ft | 0 kts | 211° |
| 2026-05-04 00:36 | 25.25994 | 55.35158 | 241 ft | 143 kts | 122° |
| 2026-05-04 00:37 | 25.25888 | 55.35354 | 228 ft | 142 kts | 121° |
| 2026-05-04 00:37 | 25.25374 | 55.36283 | 104 ft | 144 kts | 122° |
| 2026-05-04 00:37 | 25.25560 | 55.35944 | 155 ft | 144 kts | 123° |
| 2026-05-04 00:37 | 25.25033 | 55.36895 | 38 ft | 141 kts | 123° |
| 2026-05-04 00:38 | 25.24572 | 55.37722 | 33 ft | 107 kts | 122° |
| 2026-05-04 00:38 | 25.24261 | 55.38283 | 37 ft | 63 kts | 121° |
| 2026-05-04 00:38 | 25.24113 | 55.38554 | 35 ft | 19 kts | 127° |
| 2026-05-04 00:38 | 25.23984 | 55.38586 | 31 ft | 22 kts | 204° |
| 2026-05-04 00:39 | 25.23924 | 55.38488 | 27 ft | 2 kts | 286° |
| 2026-05-04 00:39 | 25.23940 | 55.38460 | 27 ft | 7 kts | 302° |
| 2026-05-04 00:39 | 25.24040 | 55.38304 | 28 ft | 42 kts | 300° |
| 2026-05-04 00:39 | 25.26510 | 55.34231 | 327 ft | 139 kts | 123° |